sensor_id;sensor_type;location;lat;lon;timestamp;temperature;humidity
61253;DHT22;47127;47.516;8.596;2023-05-15T00:00:08;12.10;99.90
61253;DHT22;47127;47.516;8.596;2023-05-15T00:02:35;12.10;99.90
61253;DHT22;47127;47.516;8.596;2023-05-15T00:05:02;12.10;99.90
61253;DHT22;47127;47.516;8.596;2023-05-15T00:07:28;12.10;99.90
61253;DHT22;47127;47.516;8.596;2023-05-15T00:09:54;12.10;99.90
61253;DHT22;47127;47.516;8.596;2023-05-15T00:12:20;12.10;99.90
61253;DHT22;47127;47.516;8.596;2023-05-15T00:14:45;12.10;99.90
61253;DHT22;47127;47.516;8.596;2023-05-15T00:17:11;12.00;99.90
61253;DHT22;47127;47.516;8.596;2023-05-15T00:19:37;12.00;99.90
61253;DHT22;47127;47.516;8.596;2023-05-15T00:22:03;12.00;99.90
61253;DHT22;47127;47.516;8.596;2023-05-15T00:24:28;12.00;99.90
61253;DHT22;47127;47.516;8.596;2023-05-15T00:26:54;11.90;99.90
61253;DHT22;47127;47.516;8.596;2023-05-15T00:29:19;11.90;99.90
61253;DHT22;47127;47.516;8.596;2023-05-15T00:31:45;11.90;99.90
61253;DHT22;47127;47.516;8.596;2023-05-15T00:34:10;11.90;99.90
61253;DHT22;47127;47.516;8.596;2023-05-15T00:36:36;11.90;99.90
61253;DHT22;47127;47.516;8.596;2023-05-15T00:39:02;11.90;99.90
61253;DHT22;47127;47.516;8.596;2023-05-15T00:41:29;11.80;99.90
61253;DHT22;47127;47.516;8.596;2023-05-15T00:43:57;11.80;99.90
61253;DHT22;47127;47.516;8.596;2023-05-15T00:46:26;11.90;99.90
61253;DHT22;47127;47.516;8.596;2023-05-15T00:48:52;12.00;99.90
61253;DHT22;47127;47.516;8.596;2023-05-15T00:51:18;12.00;99.90
61253;DHT22;47127;47.516;8.596;2023-05-15T00:53:44;12.00;99.90
61253;DHT22;47127;47.516;8.596;2023-05-15T00:56:10;12.00;99.90
61253;DHT22;47127;47.516;8.596;2023-05-15T00:58:37;12.00;99.90
61253;DHT22;47127;47.516;8.596;2023-05-15T01:01:03;12.00;99.90
61253;DHT22;47127;47.516;8.596;2023-05-15T01:03:29;12.00;99.90
61253;DHT22;47127;47.516;8.596;2023-05-15T01:05:55;11.90;99.90
61253;DHT22;47127;47.516;8.596;2023-05-15T01:11:05;11.90;99.90
61253;DHT22;47127;47.516;8.596;2023-05-15T01:13:31;11.90;99.90
61253;DHT22;47127;47.516;8.596;2023-05-15T01:15:57;11.90;99.90
61253;DHT22;47127;47.516;8.596;2023-05-15T01:18:23;12.00;99.90
61253;DHT22;47127;47.516;8.596;2023-05-15T01:24:06;12.00;99.90
61253;DHT22;47127;47.516;8.596;2023-05-15T01:32:40;12.00;99.90
61253;DHT22;47127;47.516;8.596;2023-05-15T01:38:14;11.90;99.90
61253;DHT22;47127;47.516;8.596;2023-05-15T01:40:40;11.90;99.90
61253;DHT22;47127;47.516;8.596;2023-05-15T01:43:11;12.00;99.90
61253;DHT22;47127;47.516;8.596;2023-05-15T01:45:42;11.90;99.90
61253;DHT22;47127;47.516;8.596;2023-05-15T01:48:08;11.90;99.90
61253;DHT22;47127;47.516;8.596;2023-05-15T01:50:35;11.90;99.90
61253;DHT22;47127;47.516;8.596;2023-05-15T01:53:04;11.80;99.90
61253;DHT22;47127;47.516;8.596;2023-05-15T01:55:32;11.80;99.90
61253;DHT22;47127;47.516;8.596;2023-05-15T01:58:00;11.70;99.90
61253;DHT22;47127;47.516;8.596;2023-05-15T02:00:28;11.70;99.90
61253;DHT22;47127;47.516;8.596;2023-05-15T02:02:55;11.70;99.90
61253;DHT22;47127;47.516;8.596;2023-05-15T02:05:22;11.70;99.90
61253;DHT22;47127;47.516;8.596;2023-05-15T02:07:48;11.60;99.90
61253;DHT22;47127;47.516;8.596;2023-05-15T02:10:16;11.60;99.90
61253;DHT22;47127;47.516;8.596;2023-05-15T02:12:42;11.60;99.90
61253;DHT22;47127;47.516;8.596;2023-05-15T02:15:09;11.60;99.90
61253;DHT22;47127;47.516;8.596;2023-05-15T02:17:35;11.70;99.90
61253;DHT22;47127;47.516;8.596;2023-05-15T02:20:01;11.70;99.90
61253;DHT22;47127;47.516;8.596;2023-05-15T02:22:26;11.60;99.90
61253;DHT22;47127;47.516;8.596;2023-05-15T02:24:52;11.60;99.90
61253;DHT22;47127;47.516;8.596;2023-05-15T02:27:24;11.60;99.90
61253;DHT22;47127;47.516;8.596;2023-05-15T02:37:55;11.70;99.90
61253;DHT22;47127;47.516;8.596;2023-05-15T02:40:27;11.80;99.90
61253;DHT22;47127;47.516;8.596;2023-05-15T02:42:54;11.70;99.90
61253;DHT22;47127;47.516;8.596;2023-05-15T02:45:21;11.70;99.90
61253;DHT22;47127;47.516;8.596;2023-05-15T02:47:48;11.70;99.90
61253;DHT22;47127;47.516;8.596;2023-05-15T02:50:16;11.70;99.90
61253;DHT22;47127;47.516;8.596;2023-05-15T02:52:42;11.70;99.90
61253;DHT22;47127;47.516;8.596;2023-05-15T02:55:08;11.60;99.90
61253;DHT22;47127;47.516;8.596;2023-05-15T02:57:34;11.70;99.90
61253;DHT22;47127;47.516;8.596;2023-05-15T03:00:00;11.60;99.90
61253;DHT22;47127;47.516;8.596;2023-05-15T03:02:26;11.70;99.90
61253;DHT22;47127;47.516;8.596;2023-05-15T03:04:52;11.70;99.90
61253;DHT22;47127;47.516;8.596;2023-05-15T03:07:17;11.70;99.90
61253;DHT22;47127;47.516;8.596;2023-05-15T03:09:43;11.70;99.90
61253;DHT22;47127;47.516;8.596;2023-05-15T03:12:09;11.70;99.90
61253;DHT22;47127;47.516;8.596;2023-05-15T03:14:35;11.70;99.90
61253;DHT22;47127;47.516;8.596;2023-05-15T03:17:00;11.70;99.90
61253;DHT22;47127;47.516;8.596;2023-05-15T03:19:26;11.70;99.90
61253;DHT22;47127;47.516;8.596;2023-05-15T03:21:51;11.80;99.90
61253;DHT22;47127;47.516;8.596;2023-05-15T03:24:17;11.80;99.90
61253;DHT22;47127;47.516;8.596;2023-05-15T03:26:43;11.80;99.90
61253;DHT22;47127;47.516;8.596;2023-05-15T03:29:09;11.80;99.90
61253;DHT22;47127;47.516;8.596;2023-05-15T03:31:35;11.80;99.90
61253;DHT22;47127;47.516;8.596;2023-05-15T03:34:00;11.80;99.90
61253;DHT22;47127;47.516;8.596;2023-05-15T03:36:26;11.80;99.90
61253;DHT22;47127;47.516;8.596;2023-05-15T03:38:52;11.80;99.90
61253;DHT22;47127;47.516;8.596;2023-05-15T03:41:17;11.80;99.90
61253;DHT22;47127;47.516;8.596;2023-05-15T03:43:43;11.80;99.90
61253;DHT22;47127;47.516;8.596;2023-05-15T03:46:08;11.80;99.90
61253;DHT22;47127;47.516;8.596;2023-05-15T03:48:34;11.70;99.90
61253;DHT22;47127;47.516;8.596;2023-05-15T03:50:59;11.60;99.90
61253;DHT22;47127;47.516;8.596;2023-05-15T03:53:25;11.50;99.90
61253;DHT22;47127;47.516;8.596;2023-05-15T03:55:50;11.50;99.90
61253;DHT22;47127;47.516;8.596;2023-05-15T03:58:16;11.50;99.90
61253;DHT22;47127;47.516;8.596;2023-05-15T04:00:42;11.50;99.90
61253;DHT22;47127;47.516;8.596;2023-05-15T04:03:08;11.50;99.90
61253;DHT22;47127;47.516;8.596;2023-05-15T04:05:33;11.40;99.90
61253;DHT22;47127;47.516;8.596;2023-05-15T04:07:59;11.50;99.90
61253;DHT22;47127;47.516;8.596;2023-05-15T04:10:25;11.50;99.90
61253;DHT22;47127;47.516;8.596;2023-05-15T04:12:50;11.50;99.90
61253;DHT22;47127;47.516;8.596;2023-05-15T04:15:19;11.50;99.90
61253;DHT22;47127;47.516;8.596;2023-05-15T04:17:47;11.50;99.90
61253;DHT22;47127;47.516;8.596;2023-05-15T04:20:14;11.50;99.90
61253;DHT22;47127;47.516;8.596;2023-05-15T04:22:41;11.50;99.90
61253;DHT22;47127;47.516;8.596;2023-05-15T04:25:07;11.60;99.90
61253;DHT22;47127;47.516;8.596;2023-05-15T04:27:34;11.50;99.90
61253;DHT22;47127;47.516;8.596;2023-05-15T04:30:01;11.50;99.90
61253;DHT22;47127;47.516;8.596;2023-05-15T04:32:27;11.50;99.90
61253;DHT22;47127;47.516;8.596;2023-05-15T04:34:53;11.60;99.90
61253;DHT22;47127;47.516;8.596;2023-05-15T04:37:18;11.60;99.90
61253;DHT22;47127;47.516;8.596;2023-05-15T04:39:44;11.60;99.90
61253;DHT22;47127;47.516;8.596;2023-05-15T04:42:09;11.70;99.90
61253;DHT22;47127;47.516;8.596;2023-05-15T04:44:35;11.70;99.90
61253;DHT22;47127;47.516;8.596;2023-05-15T04:47:01;11.80;99.90
61253;DHT22;47127;47.516;8.596;2023-05-15T04:49:26;11.70;99.90
61253;DHT22;47127;47.516;8.596;2023-05-15T04:51:52;11.80;99.90
61253;DHT22;47127;47.516;8.596;2023-05-15T04:54:17;11.80;99.90
61253;DHT22;47127;47.516;8.596;2023-05-15T04:56:44;11.80;99.90
61253;DHT22;47127;47.516;8.596;2023-05-15T04:59:10;11.80;99.90
61253;DHT22;47127;47.516;8.596;2023-05-15T05:01:35;11.80;99.90
61253;DHT22;47127;47.516;8.596;2023-05-15T05:04:01;11.80;99.90
61253;DHT22;47127;47.516;8.596;2023-05-15T05:06:27;11.90;99.90
61253;DHT22;47127;47.516;8.596;2023-05-15T05:08:52;11.90;99.90
61253;DHT22;47127;47.516;8.596;2023-05-15T05:11:18;11.90;99.90
61253;DHT22;47127;47.516;8.596;2023-05-15T05:13:45;12.00;99.90
61253;DHT22;47127;47.516;8.596;2023-05-15T05:16:10;12.00;99.90
61253;DHT22;47127;47.516;8.596;2023-05-15T05:18:36;12.10;99.90
61253;DHT22;47127;47.516;8.596;2023-05-15T05:21:02;12.10;99.90
61253;DHT22;47127;47.516;8.596;2023-05-15T05:23:31;12.20;99.90
61253;DHT22;47127;47.516;8.596;2023-05-15T05:25:58;12.20;99.90
61253;DHT22;47127;47.516;8.596;2023-05-15T05:28:24;12.40;99.90
61253;DHT22;47127;47.516;8.596;2023-05-15T05:30:49;12.40;99.90
61253;DHT22;47127;47.516;8.596;2023-05-15T05:33:15;12.40;99.90
61253;DHT22;47127;47.516;8.596;2023-05-15T05:35:41;12.40;99.90
61253;DHT22;47127;47.516;8.596;2023-05-15T05:38:06;12.50;99.90
61253;DHT22;47127;47.516;8.596;2023-05-15T05:40:32;12.50;99.90
61253;DHT22;47127;47.516;8.596;2023-05-15T05:42:59;12.50;99.90
61253;DHT22;47127;47.516;8.596;2023-05-15T05:45:25;12.50;99.90
61253;DHT22;47127;47.516;8.596;2023-05-15T05:47:51;12.50;99.90
61253;DHT22;47127;47.516;8.596;2023-05-15T05:50:17;12.40;99.90
61253;DHT22;47127;47.516;8.596;2023-05-15T05:52:43;12.40;99.90
61253;DHT22;47127;47.516;8.596;2023-05-15T05:55:09;12.40;99.90
61253;DHT22;47127;47.516;8.596;2023-05-15T05:57:34;12.40;99.90
61253;DHT22;47127;47.516;8.596;2023-05-15T06:00:00;12.40;99.90
61253;DHT22;47127;47.516;8.596;2023-05-15T06:02:26;12.30;99.90
61253;DHT22;47127;47.516;8.596;2023-05-15T06:04:51;12.30;99.90
61253;DHT22;47127;47.516;8.596;2023-05-15T06:07:17;12.20;99.90
61253;DHT22;47127;47.516;8.596;2023-05-15T06:09:43;12.30;99.90
61253;DHT22;47127;47.516;8.596;2023-05-15T06:12:10;12.20;99.90
61253;DHT22;47127;47.516;8.596;2023-05-15T06:14:35;12.30;99.90
61253;DHT22;47127;47.516;8.596;2023-05-15T06:17:01;12.20;99.90
61253;DHT22;47127;47.516;8.596;2023-05-15T06:19:28;12.20;99.90
61253;DHT22;47127;47.516;8.596;2023-05-15T06:21:53;12.20;99.90
61253;DHT22;47127;47.516;8.596;2023-05-15T06:24:19;12.30;99.90
61253;DHT22;47127;47.516;8.596;2023-05-15T06:26:44;12.30;99.90
61253;DHT22;47127;47.516;8.596;2023-05-15T06:29:10;12.20;99.90
61253;DHT22;47127;47.516;8.596;2023-05-15T06:31:36;12.30;99.90
61253;DHT22;47127;47.516;8.596;2023-05-15T06:34:01;12.30;99.90
61253;DHT22;47127;47.516;8.596;2023-05-15T06:36:27;12.30;99.90
61253;DHT22;47127;47.516;8.596;2023-05-15T06:38:52;12.20;99.90
61253;DHT22;47127;47.516;8.596;2023-05-15T06:41:18;12.20;99.90
61253;DHT22;47127;47.516;8.596;2023-05-15T06:43:44;12.20;99.90
61253;DHT22;47127;47.516;8.596;2023-05-15T06:46:09;12.10;99.90
61253;DHT22;47127;47.516;8.596;2023-05-15T06:48:35;12.10;99.90
61253;DHT22;47127;47.516;8.596;2023-05-15T06:51:01;12.10;99.90
61253;DHT22;47127;47.516;8.596;2023-05-15T06:53:28;12.10;99.90
61253;DHT22;47127;47.516;8.596;2023-05-15T06:55:54;12.10;99.90
61253;DHT22;47127;47.516;8.596;2023-05-15T06:58:21;12.10;99.90
61253;DHT22;47127;47.516;8.596;2023-05-15T07:00:46;12.20;99.90
61253;DHT22;47127;47.516;8.596;2023-05-15T07:03:12;12.10;99.90
61253;DHT22;47127;47.516;8.596;2023-05-15T07:05:38;12.20;99.90
61253;DHT22;47127;47.516;8.596;2023-05-15T07:08:04;12.20;99.90
61253;DHT22;47127;47.516;8.596;2023-05-15T07:10:30;12.30;99.90
61253;DHT22;47127;47.516;8.596;2023-05-15T07:12:55;12.30;99.90
61253;DHT22;47127;47.516;8.596;2023-05-15T07:15:21;12.30;99.90
61253;DHT22;47127;47.516;8.596;2023-05-15T07:17:47;12.40;99.90
61253;DHT22;47127;47.516;8.596;2023-05-15T07:20:12;12.40;99.90
61253;DHT22;47127;47.516;8.596;2023-05-15T07:22:38;12.40;99.90
61253;DHT22;47127;47.516;8.596;2023-05-15T07:25:04;12.50;99.90
61253;DHT22;47127;47.516;8.596;2023-05-15T07:27:31;12.50;99.90
61253;DHT22;47127;47.516;8.596;2023-05-15T07:29:56;12.40;99.90
61253;DHT22;47127;47.516;8.596;2023-05-15T07:32:22;12.40;99.90
61253;DHT22;47127;47.516;8.596;2023-05-15T07:34:47;12.40;99.90
61253;DHT22;47127;47.516;8.596;2023-05-15T07:37:13;12.40;99.90
61253;DHT22;47127;47.516;8.596;2023-05-15T07:39:38;12.30;99.90
61253;DHT22;47127;47.516;8.596;2023-05-15T07:42:04;12.30;99.90
61253;DHT22;47127;47.516;8.596;2023-05-15T07:44:30;12.40;99.90
61253;DHT22;47127;47.516;8.596;2023-05-15T07:46:55;12.40;99.90
61253;DHT22;47127;47.516;8.596;2023-05-15T07:49:22;12.40;99.90
61253;DHT22;47127;47.516;8.596;2023-05-15T07:51:48;12.40;99.90
61253;DHT22;47127;47.516;8.596;2023-05-15T07:54:13;12.50;99.90
61253;DHT22;47127;47.516;8.596;2023-05-15T07:56:40;12.50;99.90
61253;DHT22;47127;47.516;8.596;2023-05-15T07:59:06;12.50;99.90
61253;DHT22;47127;47.516;8.596;2023-05-15T08:01:32;12.70;99.90
61253;DHT22;47127;47.516;8.596;2023-05-15T08:03:57;12.80;99.90
61253;DHT22;47127;47.516;8.596;2023-05-15T08:06:24;12.80;99.90
61253;DHT22;47127;47.516;8.596;2023-05-15T08:08:50;12.80;99.90
61253;DHT22;47127;47.516;8.596;2023-05-15T08:11:16;12.80;99.90
61253;DHT22;47127;47.516;8.596;2023-05-15T08:13:42;12.90;99.90
61253;DHT22;47127;47.516;8.596;2023-05-15T08:16:07;12.90;99.90
61253;DHT22;47127;47.516;8.596;2023-05-15T08:18:33;12.90;99.90
61253;DHT22;47127;47.516;8.596;2023-05-15T08:20:58;13.00;99.90
61253;DHT22;47127;47.516;8.596;2023-05-15T08:23:24;13.10;99.90
61253;DHT22;47127;47.516;8.596;2023-05-15T08:25:49;13.30;99.90
61253;DHT22;47127;47.516;8.596;2023-05-15T08:28:15;13.50;99.90
61253;DHT22;47127;47.516;8.596;2023-05-15T08:30:41;13.50;99.90
61253;DHT22;47127;47.516;8.596;2023-05-15T08:33:06;13.50;99.90
61253;DHT22;47127;47.516;8.596;2023-05-15T08:35:33;13.40;99.90
61253;DHT22;47127;47.516;8.596;2023-05-15T08:37:59;13.40;99.90
61253;DHT22;47127;47.516;8.596;2023-05-15T08:40:25;13.50;99.90
61253;DHT22;47127;47.516;8.596;2023-05-15T08:42:54;13.50;99.90
61253;DHT22;47127;47.516;8.596;2023-05-15T08:45:21;13.60;99.90
61253;DHT22;47127;47.516;8.596;2023-05-15T08:47:48;13.60;99.90
61253;DHT22;47127;47.516;8.596;2023-05-15T08:50:15;13.60;99.90
61253;DHT22;47127;47.516;8.596;2023-05-15T08:52:42;13.70;99.90
61253;DHT22;47127;47.516;8.596;2023-05-15T08:55:08;13.70;99.90
61253;DHT22;47127;47.516;8.596;2023-05-15T08:57:37;13.60;99.90
61253;DHT22;47127;47.516;8.596;2023-05-15T09:00:04;13.50;99.90
61253;DHT22;47127;47.516;8.596;2023-05-15T09:02:39;13.50;99.90
61253;DHT22;47127;47.516;8.596;2023-05-15T09:05:05;13.50;99.90
61253;DHT22;47127;47.516;8.596;2023-05-15T09:07:31;13.50;99.90
61253;DHT22;47127;47.516;8.596;2023-05-15T09:09:58;13.40;99.90
61253;DHT22;47127;47.516;8.596;2023-05-15T09:12:25;13.50;99.90
61253;DHT22;47127;47.516;8.596;2023-05-15T09:15:08;13.70;99.90
61253;DHT22;47127;47.516;8.596;2023-05-15T09:17:34;13.70;99.90
61253;DHT22;47127;47.516;8.596;2023-05-15T09:20:04;14.00;99.90
61253;DHT22;47127;47.516;8.596;2023-05-15T09:22:41;14.10;99.90
61253;DHT22;47127;47.516;8.596;2023-05-15T09:25:07;14.30;99.90
61253;DHT22;47127;47.516;8.596;2023-05-15T09:27:40;14.50;99.90
61253;DHT22;47127;47.516;8.596;2023-05-15T09:30:08;14.50;99.90
61253;DHT22;47127;47.516;8.596;2023-05-15T09:32:40;14.40;99.90
61253;DHT22;47127;47.516;8.596;2023-05-15T09:35:27;14.50;99.90
61253;DHT22;47127;47.516;8.596;2023-05-15T09:37:57;14.50;99.90
61253;DHT22;47127;47.516;8.596;2023-05-15T09:40:39;14.50;99.90
61253;DHT22;47127;47.516;8.596;2023-05-15T09:43:10;14.30;99.90
61253;DHT22;47127;47.516;8.596;2023-05-15T09:45:36;14.10;99.90
61253;DHT22;47127;47.516;8.596;2023-05-15T09:48:06;14.00;99.90
61253;DHT22;47127;47.516;8.596;2023-05-15T09:50:37;13.90;99.90
61253;DHT22;47127;47.516;8.596;2023-05-15T09:53:15;13.90;99.90
61253;DHT22;47127;47.516;8.596;2023-05-15T09:55:44;13.90;99.90
61253;DHT22;47127;47.516;8.596;2023-05-15T09:58:15;14.10;99.90
61253;DHT22;47127;47.516;8.596;2023-05-15T10:00:48;14.20;99.90
61253;DHT22;47127;47.516;8.596;2023-05-15T10:03:14;14.40;99.90
61253;DHT22;47127;47.516;8.596;2023-05-15T10:05:40;14.80;99.90
61253;DHT22;47127;47.516;8.596;2023-05-15T10:08:09;15.10;99.90
61253;DHT22;47127;47.516;8.596;2023-05-15T10:10:34;15.30;99.90
61253;DHT22;47127;47.516;8.596;2023-05-15T10:13:00;15.40;99.90
61253;DHT22;47127;47.516;8.596;2023-05-15T10:15:29;15.50;99.90
61253;DHT22;47127;47.516;8.596;2023-05-15T10:17:55;15.50;99.90
61253;DHT22;47127;47.516;8.596;2023-05-15T10:20:22;15.60;99.90
61253;DHT22;47127;47.516;8.596;2023-05-15T10:22:51;15.50;99.90
61253;DHT22;47127;47.516;8.596;2023-05-15T10:25:42;15.30;99.90
61253;DHT22;47127;47.516;8.596;2023-05-15T10:28:11;15.30;99.90
61253;DHT22;47127;47.516;8.596;2023-05-15T10:30:37;15.40;99.90
61253;DHT22;47127;47.516;8.596;2023-05-15T10:33:06;15.60;99.90
61253;DHT22;47127;47.516;8.596;2023-05-15T10:35:37;15.60;99.90
61253;DHT22;47127;47.516;8.596;2023-05-15T10:38:04;15.60;99.90
61253;DHT22;47127;47.516;8.596;2023-05-15T10:40:31;15.50;99.90
61253;DHT22;47127;47.516;8.596;2023-05-15T10:42:58;15.50;99.90
61253;DHT22;47127;47.516;8.596;2023-05-15T10:45:26;15.80;99.90
61253;DHT22;47127;47.516;8.596;2023-05-15T10:47:52;15.80;99.90
61253;DHT22;47127;47.516;8.596;2023-05-15T10:50:18;16.10;99.90
61253;DHT22;47127;47.516;8.596;2023-05-15T10:52:44;15.90;99.90
61253;DHT22;47127;47.516;8.596;2023-05-15T10:55:15;16.00;99.90
61253;DHT22;47127;47.516;8.596;2023-05-15T10:57:44;16.10;99.90
61253;DHT22;47127;47.516;8.596;2023-05-15T11:02:48;15.70;99.90
61253;DHT22;47127;47.516;8.596;2023-05-15T11:05:15;15.90;99.90
61253;DHT22;47127;47.516;8.596;2023-05-15T11:07:40;16.10;99.90
61253;DHT22;47127;47.516;8.596;2023-05-15T11:12:59;16.50;99.90
61253;DHT22;47127;47.516;8.596;2023-05-15T11:15:25;16.70;99.90
61253;DHT22;47127;47.516;8.596;2023-05-15T11:18:07;16.70;99.90
61253;DHT22;47127;47.516;8.596;2023-05-15T11:23:22;16.90;99.90
61253;DHT22;47127;47.516;8.596;2023-05-15T11:25:55;17.10;99.90
61253;DHT22;47127;47.516;8.596;2023-05-15T11:28:23;17.30;99.90
61253;DHT22;47127;47.516;8.596;2023-05-15T11:30:54;17.30;99.90
61253;DHT22;47127;47.516;8.596;2023-05-15T11:33:23;17.10;99.90
61253;DHT22;47127;47.516;8.596;2023-05-15T11:35:57;17.10;99.90
61253;DHT22;47127;47.516;8.596;2023-05-15T11:38:23;16.90;99.90
61253;DHT22;47127;47.516;8.596;2023-05-15T11:40:51;17.00;99.90
61253;DHT22;47127;47.516;8.596;2023-05-15T11:46:07;17.00;99.90
61253;DHT22;47127;47.516;8.596;2023-05-15T11:53:39;17.80;99.90
61253;DHT22;47127;47.516;8.596;2023-05-15T11:56:05;18.00;99.90
61253;DHT22;47127;47.516;8.596;2023-05-15T11:58:32;17.90;99.90
61253;DHT22;47127;47.516;8.596;2023-05-15T12:00:57;17.80;99.90
61253;DHT22;47127;47.516;8.596;2023-05-15T12:03:25;17.70;99.90
61253;DHT22;47127;47.516;8.596;2023-05-15T12:05:52;17.60;99.90
61253;DHT22;47127;47.516;8.596;2023-05-15T12:08:19;17.80;99.90
61253;DHT22;47127;47.516;8.596;2023-05-15T12:10:46;18.10;99.90
61253;DHT22;47127;47.516;8.596;2023-05-15T12:13:16;18.40;99.90
61253;DHT22;47127;47.516;8.596;2023-05-15T12:15:44;18.70;99.90
61253;DHT22;47127;47.516;8.596;2023-05-15T12:18:11;18.70;99.90
61253;DHT22;47127;47.516;8.596;2023-05-15T12:20:38;18.50;99.90
61253;DHT22;47127;47.516;8.596;2023-05-15T12:23:05;18.60;99.90
61253;DHT22;47127;47.516;8.596;2023-05-15T12:25:34;18.70;99.90
61253;DHT22;47127;47.516;8.596;2023-05-15T12:28:01;18.50;99.90
61253;DHT22;47127;47.516;8.596;2023-05-15T12:30:29;18.00;99.90
61253;DHT22;47127;47.516;8.596;2023-05-15T12:32:59;17.80;99.90
61253;DHT22;47127;47.516;8.596;2023-05-15T12:35:25;17.80;99.90
61253;DHT22;47127;47.516;8.596;2023-05-15T12:37:51;17.80;99.90
61253;DHT22;47127;47.516;8.596;2023-05-15T12:40:19;18.00;99.90
61253;DHT22;47127;47.516;8.596;2023-05-15T12:42:45;18.40;99.90
61253;DHT22;47127;47.516;8.596;2023-05-15T12:45:18;18.70;99.90
61253;DHT22;47127;47.516;8.596;2023-05-15T12:47:46;19.20;99.90
61253;DHT22;47127;47.516;8.596;2023-05-15T12:50:17;19.40;99.90
61253;DHT22;47127;47.516;8.596;2023-05-15T12:55:27;19.10;99.90
61253;DHT22;47127;47.516;8.596;2023-05-15T12:58:04;18.80;99.90
61253;DHT22;47127;47.516;8.596;2023-05-15T13:00:38;18.80;99.90
61253;DHT22;47127;47.516;8.596;2023-05-15T13:03:03;18.90;99.90
61253;DHT22;47127;47.516;8.596;2023-05-15T13:05:33;18.90;99.90
61253;DHT22;47127;47.516;8.596;2023-05-15T13:08:01;19.00;99.10
61253;DHT22;47127;47.516;8.596;2023-05-15T13:10:27;19.00;99.90
61253;DHT22;47127;47.516;8.596;2023-05-15T13:12:55;19.10;99.60
61253;DHT22;47127;47.516;8.596;2023-05-15T13:15:37;19.10;99.70
61253;DHT22;47127;47.516;8.596;2023-05-15T13:18:11;18.90;99.80
61253;DHT22;47127;47.516;8.596;2023-05-15T13:20:44;18.40;99.90
61253;DHT22;47127;47.516;8.596;2023-05-15T13:23:12;17.90;99.10
61253;DHT22;47127;47.516;8.596;2023-05-15T13:25:39;16.80;99.10
61253;DHT22;47127;47.516;8.596;2023-05-15T13:28:05;16.10;99.90
61253;DHT22;47127;47.516;8.596;2023-05-15T13:30:32;16.00;99.90
61253;DHT22;47127;47.516;8.596;2023-05-15T13:32:59;15.70;99.90
61253;DHT22;47127;47.516;8.596;2023-05-15T13:35:25;15.70;99.90
61253;DHT22;47127;47.516;8.596;2023-05-15T13:37:51;15.60;99.90
61253;DHT22;47127;47.516;8.596;2023-05-15T13:40:16;15.30;99.90
61253;DHT22;47127;47.516;8.596;2023-05-15T13:42:43;15.40;99.90
61253;DHT22;47127;47.516;8.596;2023-05-15T13:45:11;15.20;99.90
61253;DHT22;47127;47.516;8.596;2023-05-15T13:47:37;15.00;99.90
61253;DHT22;47127;47.516;8.596;2023-05-15T13:50:06;14.90;99.90
61253;DHT22;47127;47.516;8.596;2023-05-15T13:52:32;14.70;99.90
61253;DHT22;47127;47.516;8.596;2023-05-15T13:54:57;14.50;99.90
61253;DHT22;47127;47.516;8.596;2023-05-15T13:57:23;14.20;99.90
61253;DHT22;47127;47.516;8.596;2023-05-15T13:59:48;14.00;99.90
61253;DHT22;47127;47.516;8.596;2023-05-15T14:02:14;13.90;99.90
61253;DHT22;47127;47.516;8.596;2023-05-15T14:04:40;13.80;99.90
61253;DHT22;47127;47.516;8.596;2023-05-15T14:07:05;13.90;99.90
61253;DHT22;47127;47.516;8.596;2023-05-15T14:09:31;13.90;99.90
61253;DHT22;47127;47.516;8.596;2023-05-15T14:11:56;13.80;99.90
61253;DHT22;47127;47.516;8.596;2023-05-15T14:14:22;13.70;99.90
61253;DHT22;47127;47.516;8.596;2023-05-15T14:16:47;13.80;99.90
61253;DHT22;47127;47.516;8.596;2023-05-15T14:19:14;14.00;99.90
61253;DHT22;47127;47.516;8.596;2023-05-15T14:21:40;14.00;99.90
61253;DHT22;47127;47.516;8.596;2023-05-15T14:24:07;14.00;99.90
61253;DHT22;47127;47.516;8.596;2023-05-15T14:26:33;14.00;99.90
61253;DHT22;47127;47.516;8.596;2023-05-15T14:28:58;14.10;99.90
61253;DHT22;47127;47.516;8.596;2023-05-15T14:31:24;14.10;99.90
61253;DHT22;47127;47.516;8.596;2023-05-15T14:33:50;14.30;99.90
61253;DHT22;47127;47.516;8.596;2023-05-15T14:36:16;14.40;99.90
61253;DHT22;47127;47.516;8.596;2023-05-15T14:38:42;14.50;99.90
61253;DHT22;47127;47.516;8.596;2023-05-15T14:41:13;14.70;99.90
61253;DHT22;47127;47.516;8.596;2023-05-15T14:43:39;14.90;99.90
61253;DHT22;47127;47.516;8.596;2023-05-15T14:46:06;14.90;99.90
61253;DHT22;47127;47.516;8.596;2023-05-15T14:48:31;14.70;99.90
61253;DHT22;47127;47.516;8.596;2023-05-15T14:50:58;14.80;99.90
61253;DHT22;47127;47.516;8.596;2023-05-15T14:53:25;15.00;99.90
61253;DHT22;47127;47.516;8.596;2023-05-15T14:55:51;15.10;99.90
61253;DHT22;47127;47.516;8.596;2023-05-15T14:58:17;15.40;99.90
61253;DHT22;47127;47.516;8.596;2023-05-15T15:00:43;15.50;99.90
61253;DHT22;47127;47.516;8.596;2023-05-15T15:03:09;15.70;99.90
61253;DHT22;47127;47.516;8.596;2023-05-15T15:05:35;15.70;99.90
61253;DHT22;47127;47.516;8.596;2023-05-15T15:08:02;16.20;99.90
61253;DHT22;47127;47.516;8.596;2023-05-15T15:10:30;16.70;99.90
61253;DHT22;47127;47.516;8.596;2023-05-15T15:12:55;17.20;99.90
61253;DHT22;47127;47.516;8.596;2023-05-15T15:15:21;17.80;99.90
61253;DHT22;47127;47.516;8.596;2023-05-15T15:17:48;18.30;99.90
61253;DHT22;47127;47.516;8.596;2023-05-15T15:20:16;18.60;99.90
61253;DHT22;47127;47.516;8.596;2023-05-15T15:22:42;18.90;99.90
61253;DHT22;47127;47.516;8.596;2023-05-15T15:25:07;18.80;99.90
61253;DHT22;47127;47.516;8.596;2023-05-15T15:27:34;18.60;99.90
61253;DHT22;47127;47.516;8.596;2023-05-15T15:30:02;18.50;99.90
61253;DHT22;47127;47.516;8.596;2023-05-15T15:32:29;18.60;99.90
61253;DHT22;47127;47.516;8.596;2023-05-15T15:34:58;18.70;99.90
61253;DHT22;47127;47.516;8.596;2023-05-15T15:37:25;18.50;99.90
61253;DHT22;47127;47.516;8.596;2023-05-15T15:39:51;18.40;99.90
61253;DHT22;47127;47.516;8.596;2023-05-15T15:42:17;18.40;99.90
61253;DHT22;47127;47.516;8.596;2023-05-15T15:44:43;18.50;99.90
61253;DHT22;47127;47.516;8.596;2023-05-15T15:47:08;18.70;99.90
61253;DHT22;47127;47.516;8.596;2023-05-15T15:49:34;18.70;99.90
61253;DHT22;47127;47.516;8.596;2023-05-15T15:52:00;18.50;99.90
61253;DHT22;47127;47.516;8.596;2023-05-15T15:54:27;18.30;99.90
61253;DHT22;47127;47.516;8.596;2023-05-15T15:56:53;18.30;99.90
61253;DHT22;47127;47.516;8.596;2023-05-15T15:59:18;18.00;99.90
61253;DHT22;47127;47.516;8.596;2023-05-15T16:01:44;17.80;99.90
61253;DHT22;47127;47.516;8.596;2023-05-15T16:04:09;17.80;99.90
61253;DHT22;47127;47.516;8.596;2023-05-15T16:06:35;17.60;99.90
61253;DHT22;47127;47.516;8.596;2023-05-15T16:09:02;17.20;99.90